createdAt,value
2018-11-20T00:01:00.706Z,100008.23
2018-11-20T00:05:14.127Z,100015.11
2018-11-20T00:09:35.995Z,100024.11
2018-11-20T00:13:58.370Z,100019.06
2018-11-20T00:18:31.098Z,100016.41
2018-11-20T00:23:00.509Z,100012.81
2018-11-20T00:27:39.328Z,99999.63
2018-11-20T00:32:05.283Z,100002.06
2018-11-20T00:36:28.665Z,99996.80
2018-11-20T00:40:52.017Z,99998.10
2018-11-20T00:45:15.892Z,99999.72
2018-11-20T00:49:37.909Z,99999.20
2018-11-20T00:54:00.192Z,100018.19
2018-11-20T00:58:32.391Z,100019.42
2018-11-20T01:02:55.459Z,100009.38
2018-11-20T01:07:17.418Z,100006.78
2018-11-20T01:11:43.925Z,100000.28
2018-11-20T01:16:07.376Z,99998.98
2018-11-20T01:20:29.475Z,99998.22
2018-11-20T01:24:49.822Z,99986.95
2018-11-20T01:29:07.126Z,99987.86
2018-11-20T01:33:33.259Z,99984.41
2018-11-20T01:37:59.130Z,99982.73
2018-11-20T01:42:20.847Z,99970.33
2018-11-20T01:46:53.170Z,99974.34
2018-11-20T01:51:22.254Z,99963.45
2018-11-20T01:56:03.639Z,99952.11
2018-11-20T02:00:39.034Z,99952.00
2018-11-20T02:05:02.298Z,99945.38
2018-11-20T02:09:33.196Z,99944.39
2018-11-20T02:14:03.301Z,99946.12
2018-11-20T02:18:36.182Z,99938.68
2018-11-20T02:23:02.056Z,99933.00
2018-11-20T02:27:25.038Z,99935.54
2018-11-20T02:31:38.075Z,99943.45
2018-11-20T02:35:57.505Z,99951.63
2018-11-20T02:40:19.870Z,99940.43
2018-11-20T02:44:46.134Z,99942.22
2018-11-20T02:49:09.467Z,99932.63
2018-11-20T02:53:31.344Z,99934.86
2018-11-20T02:58:09.988Z,99938.36
2018-11-20T03:02:45.395Z,99928.72
2018-11-20T03:07:06.950Z,99933.92
2018-11-20T03:11:28.641Z,99937.38
2018-11-20T03:15:50.900Z,99942.92
2018-11-20T03:20:29.293Z,99935.48
2018-11-20T03:24:55.802Z,99938.94
2018-11-20T03:30:11.992Z,99933.30
2018-11-20T03:34:34.153Z,99922.95
2018-11-20T03:39:05.190Z,99909.95
2018-11-20T03:43:20.324Z,99904.38
2018-11-20T03:47:43.808Z,99904.00
2018-11-20T03:52:04.193Z,99912.40
2018-11-20T03:56:25.553Z,99912.14
2018-11-20T04:00:41.961Z,99893.92
2018-11-20T04:05:14.823Z,99903.11
2018-11-20T04:09:27.281Z,99890.58
2018-11-20T04:13:38.935Z,99885.74
2018-11-20T04:18:05.395Z,99874.91
2018-11-20T04:22:27.608Z,99873.55
2018-11-20T04:27:02.944Z,99865.69
2018-11-20T04:32:04.956Z,99871.80
2018-11-20T04:36:25.013Z,99874.41
2018-11-20T04:40:46.792Z,99869.91
2018-11-20T04:45:21.895Z,99869.91
2018-11-20T04:49:45.854Z,99870.84
2018-11-20T04:54:09.812Z,99870.50
2018-11-20T04:58:31.866Z,99862.31
2018-11-20T05:03:07.584Z,99836.24
2018-11-20T05:07:49.431Z,99834.52
2018-11-20T05:12:21.627Z,99825.13
2018-11-20T05:16:43.616Z,99809.47
2018-11-20T05:21:18.989Z,99811.67
2018-11-20T05:25:41.395Z,99797.36
2018-11-20T05:30:03.145Z,99796.50
2018-11-20T05:34:29.396Z,99807.47
2018-11-20T05:39:01.849Z,99811.42
2018-11-20T05:43:32.941Z,99800.13
2018-11-20T05:47:56.326Z,99791.58
2018-11-20T05:52:18.173Z,99789.07
2018-11-20T05:56:41.509Z,99780.55
2018-11-20T06:01:10.694Z,99768.61
2018-11-20T06:05:49.664Z,99766.81
2018-11-20T06:10:31.040Z,99764.11
2018-11-20T06:14:56.178Z,99759.78
2018-11-20T06:19:18.303Z,99751.15
2018-11-20T06:23:32.390Z,99751.69
2018-11-20T06:28:02.041Z,99741.27
2018-11-20T06:32:17.484Z,99748.59
2018-11-20T06:36:41.577Z,99743.44
2018-11-20T06:41:13.930Z,99738.34
2018-11-20T06:45:36.080Z,99730.52
2018-11-20T06:50:00.867Z,99714.46
2018-11-20T06:54:29.910Z,99709.11
2018-11-20T06:58:59.335Z,99712.14
2018-11-20T07:03:21.873Z,99719.14
2018-11-20T07:07:38.737Z,99716.64
2018-11-20T07:12:13.616Z,99714.95
2018-11-20T07:17:14.949Z,99716.02
2018-11-20T07:21:30.114Z,99729.63
2018-11-20T07:26:05.741Z,99728.84
2018-11-20T07:30:31.709Z,99730.15
2018-11-20T07:34:58.009Z,99737.10
2018-11-20T07:39:19.928Z,99736.38
2018-11-20T07:43:43.450Z,99741.63
2018-11-20T07:48:12.985Z,99742.98
2018-11-20T07:52:39.084Z,99743.04
2018-11-20T07:57:05.068Z,99735.75
2018-11-20T08:01:17.915Z,99735.45
2018-11-20T08:06:17.359Z,99716.36
2018-11-20T08:10:46.471Z,99711.72
2018-11-20T08:15:09.842Z,99706.12
2018-11-20T08:19:51.128Z,99695.70
2018-11-20T08:24:13.222Z,99711.86
2018-11-20T08:28:39.671Z,99714.56
2018-11-20T08:33:01.509Z,99715.43
2018-11-20T08:37:27.904Z,99720.63
2018-11-20T08:41:43.125Z,99711.86
2018-11-20T08:46:09.279Z,99702.26
2018-11-20T08:50:35.258Z,99704.23
2018-11-20T08:55:04.525Z,99718.00
2018-11-20T08:59:21.067Z,99723.06
2018-11-20T09:03:46.921Z,99724.45
2018-11-20T09:08:09.274Z,99729.67
2018-11-20T09:13:39.616Z,99721.32
2018-11-20T09:18:11.141Z,99710.70
2018-11-20T09:22:33.688Z,99714.52
2018-11-20T09:27:14.876Z,99712.39
2018-11-20T09:31:40.657Z,99707.09
2018-11-20T09:36:15.309Z,99707.83
2018-11-20T09:40:52.929Z,99706.80
2018-11-20T09:45:52.989Z,99697.55
2018-11-20T09:50:19.718Z,99697.06
2018-11-20T09:54:47.950Z,99697.74
2018-11-20T09:59:08.863Z,99699.91
2018-11-20T10:03:31.456Z,99687.89
2018-11-20T10:07:42.989Z,99685.58
2018-11-20T10:12:14.425Z,99682.02
2018-11-20T10:16:46.133Z,99677.09
2018-11-20T10:21:07.453Z,99671.84
2018-11-20T10:25:45.190Z,99670.11
2018-11-20T10:30:04.791Z,99660.56
2018-11-20T10:34:42.504Z,99644.94
2018-11-20T10:39:23.230Z,99639.30
2018-11-20T10:43:44.902Z,99635.20
2018-11-20T10:48:05.868Z,99642.76
2018-11-20T10:52:20.422Z,99640.45
2018-11-20T10:56:43.060Z,99640.49
2018-11-20T11:01:04.022Z,99637.94
2018-11-20T11:05:27.054Z,99635.38
2018-11-20T11:09:47.999Z,99630.95
2018-11-20T11:14:09.315Z,99630.57
2018-11-20T11:18:30.553Z,99627.87
2018-11-20T11:22:51.942Z,99619.48
2018-11-20T11:27:17.830Z,99620.39
2018-11-20T11:31:40.487Z,99615.47
2018-11-20T11:36:09.186Z,99603.55
2018-11-20T11:40:31.785Z,99603.41
2018-11-20T11:44:53.069Z,99587.48
2018-11-20T11:49:14.581Z,99587.92
2018-11-20T11:53:43.031Z,99585.86
2018-11-20T11:58:24.156Z,99591.94
2018-11-20T12:07:35.442Z,99591.34
2018-11-20T12:11:51.046Z,99593.56
2018-11-20T12:16:08.818Z,99593.66
2018-11-20T12:20:30.422Z,99591.34
2018-11-20T12:24:55.675Z,99596.87
2018-11-20T12:29:17.102Z,99598.22
2018-11-20T12:33:38.367Z,99595.42
2018-11-20T12:38:19.605Z,99591.73
2018-11-20T12:42:44.381Z,99579.36
2018-11-20T12:47:24.570Z,99589.91
2018-11-20T12:51:53.636Z,99581.89
2018-11-20T12:56:17.810Z,99579.56
2018-11-20T13:00:30.540Z,99582.16
2018-11-20T13:04:51.400Z,99585.58
2018-11-20T13:09:16.489Z,99583.41
2018-11-20T13:13:32.518Z,99591.66
2018-11-20T13:18:03.592Z,99593.11
2018-11-20T13:22:19.793Z,99589.31
2018-11-20T13:26:41.064Z,99596.35
2018-11-20T13:30:49.285Z,99596.35
2018-11-20T13:35:10.251Z,99599.05
2018-11-20T13:39:31.432Z,99606.80
2018-11-20T13:43:54.092Z,99605.17
2018-11-20T13:48:15.628Z,99600.17
2018-11-20T13:52:56.125Z,99582.03
2018-11-20T13:57:10.726Z,99578.23
2018-11-20T14:01:51.656Z,99581.77
2018-11-20T14:06:23.831Z,99579.16
2018-11-20T14:10:48.626Z,99576.56
2018-11-20T14:15:20.276Z,99562.35
2018-11-20T14:19:40.113Z,99556.97
2018-11-20T14:24:21.174Z,99564.77
2018-11-20T14:28:43.812Z,99562.41
2018-11-20T14:33:10.156Z,99568.63
2018-11-20T14:37:35.451Z,99546.02
2018-11-20T14:42:13.091Z,99546.31
2018-11-20T14:46:47.869Z,99537.20
2018-11-20T14:51:08.627Z,99532.00
2018-11-20T14:55:38.670Z,99527.63
2018-11-20T15:00:10.027Z,99522.90
2018-11-20T15:04:31.958Z,99527.53
2018-11-20T15:08:54.578Z,99525.59
2018-11-20T15:13:10.603Z,99522.17
2018-11-20T15:17:35.791Z,99529.50
2018-11-20T15:22:14.128Z,99533.02
2018-11-20T15:26:35.422Z,99520.97
2018-11-20T15:30:56.818Z,99508.59
2018-11-20T15:35:18.030Z,99506.42
2018-11-20T15:39:34.312Z,99502.09
2018-11-20T15:43:46.834Z,99499.97
2018-11-20T15:48:08.588Z,99513.94
2018-11-20T15:52:43.118Z,99520.11
2018-11-20T15:57:23.966Z,99511.81
2018-11-20T16:01:52.820Z,99507.88
2018-11-20T16:06:13.989Z,99504.41
2018-11-20T16:10:27.612Z,99513.52
2018-11-20T16:14:58.980Z,99510.91
2018-11-20T16:19:30.490Z,99508.41
2018-11-20T16:23:53.216Z,99518.86
2018-11-20T16:28:14.441Z,99517.52
2018-11-20T16:32:37.066Z,99513.17
2018-11-20T16:36:58.139Z,99515.78
2018-11-20T16:41:19.361Z,99519.73
2018-11-20T16:45:44.780Z,99517.66
2018-11-20T16:50:08.042Z,99524.59
2018-11-20T16:54:48.769Z,99530.86
2018-11-20T16:59:09.686Z,99531.43
2018-11-20T17:03:30.798Z,99540.20
2018-11-20T17:08:14.275Z,99533.36
2018-11-20T17:12:40.095Z,99539.05
2018-11-20T17:17:05.366Z,99551.82
2018-11-20T17:21:36.657Z,99549.70
2018-11-20T17:25:57.673Z,99545.50
2018-11-20T17:30:20.301Z,99540.73
2018-11-20T17:35:01.080Z,99543.91
2018-11-20T17:39:24.352Z,99543.57
2018-11-20T17:43:48.796Z,99547.05
2018-11-20T17:48:02.451Z,99550.18
2018-11-20T17:52:21.812Z,99553.34
2018-11-20T17:56:44.461Z,99549.50
2018-11-20T18:01:05.866Z,99557.40
2018-11-20T18:05:46.737Z,99561.39
2018-11-20T18:10:09.052Z,99554.06
2018-11-20T18:14:30.845Z,99550.69
2018-11-20T18:18:56.300Z,99559.06
2018-11-20T18:23:21.439Z,99562.19
2018-11-20T18:27:53.266Z,99561.80
2018-11-20T18:32:16.015Z,99562.33
2018-11-20T18:36:44.007Z,99566.33
2018-11-20T18:41:05.453Z,99562.51
2018-11-20T18:45:28.343Z,99564.34
2018-11-20T18:50:00.272Z,99568.81
2018-11-20T18:54:35.109Z,99574.15
2018-11-20T18:58:57.825Z,99573.77
2018-11-20T19:03:11.533Z,99578.58
2018-11-20T19:07:41.730Z,99585.09
2018-11-20T19:11:54.904Z,99584.56
2018-11-20T19:16:16.062Z,99587.13
2018-11-20T19:20:39.146Z,99584.95
2018-11-20T19:25:00.586Z,99583.27
2018-11-20T19:29:21.710Z,99584.56
2018-11-20T19:33:59.556Z,99594.90
2018-11-20T19:38:28.896Z,99595.42
2018-11-20T19:42:51.313Z,99598.47
2018-11-20T19:47:12.284Z,99595.46
2018-11-20T19:51:33.463Z,99602.50
2018-11-20T19:56:02.136Z,99600.81
2018-11-20T20:00:30.703Z,99606.45
2018-11-20T20:04:51.945Z,99607.71
2018-11-20T20:09:24.962Z,99609.10
2018-11-20T20:13:59.640Z,99609.14
2018-11-20T20:18:31.808Z,99602.59
2018-11-20T20:22:45.194Z,99602.11
2018-11-20T20:27:06.392Z,99599.98
2018-11-20T20:31:28.023Z,99604.33
2018-11-20T20:35:50.814Z,99605.63
2018-11-20T20:40:31.367Z,99606.59
2018-11-20T20:44:54.064Z,99611.02
2018-11-20T20:49:16.442Z,99617.23
2018-11-20T20:53:44.906Z,99605.07
2018-11-20T20:58:13.432Z,99605.94
2018-11-20T21:02:51.478Z,99604.11
2018-11-20T21:07:14.192Z,99606.80
2018-11-20T21:11:35.270Z,99611.58
2018-11-20T21:15:58.482Z,99610.23
2018-11-20T21:20:30.006Z,99617.23
2018-11-20T21:25:10.972Z,99613.80
2018-11-20T21:29:27.933Z,99619.92
2018-11-20T21:33:56.528Z,99628.56
2018-11-20T21:38:21.710Z,99644.72
2018-11-20T21:42:50.215Z,99643.81
2018-11-20T21:47:31.035Z,99647.42
2018-11-20T21:51:52.507Z,99647.46
2018-11-20T21:56:13.626Z,99653.15
2018-11-20T22:00:49.325Z,99655.45
2018-11-20T22:05:10.958Z,99655.94
2018-11-20T22:09:32.146Z,99659.54
2018-11-20T22:13:54.808Z,99665.67
2018-11-20T22:18:15.836Z,99679.66
2018-11-20T22:22:37.243Z,99683.61
2018-11-20T22:27:02.741Z,99696.69
2018-11-20T22:31:24.247Z,99696.81
2018-11-20T22:36:01.937Z,99689.95
2018-11-20T22:40:34.085Z,99699.56
2018-11-20T22:45:07.675Z,99700.86
2018-11-20T22:49:29.202Z,99696.59
2018-11-20T22:53:57.581Z,99706.64
2018-11-20T22:58:23.545Z,99708.42
2018-11-20T23:02:47.751Z,99707.55
2018-11-20T23:07:10.021Z,99707.20
2018-11-20T23:11:13.678Z,99708.55
2018-11-20T23:15:17.464Z,99713.84
2018-11-20T23:19:21.109Z,99723.02
2018-11-20T23:23:24.758Z,99713.59
2018-11-20T23:27:28.366Z,99710.23
2018-11-20T23:31:32.451Z,99708.14
2018-11-20T23:35:36.119Z,99703.83
2018-11-20T23:39:39.756Z,99700.70
2018-11-20T23:43:43.377Z,99703.79
2018-11-20T23:47:46.990Z,99698.89
2018-11-20T23:51:51.230Z,99702.41
2018-11-20T23:55:54.839Z,99702.41
2018-11-20T23:59:58.503Z,99701.93
